Aviation Digital Data Service (ADDS)

Output produced by METARs form (0913 UTC 10 December 2022)
found at http://www.aviationweather.gov/metar/data/
 
METAR text: EPGD 100900Z 29004KT 260V320 9999 OVC022 M03/M05 Q1010
Conditions at: EPGD (GDANSK/REBIECHOW, PL) observed 0900 UTC 10 December 2022
Temperature: -3.0°C (27°F)
Dewpoint: -5.0°C (23°F) [RH = 86%]
Pressure (altimeter): 29.82 inches Hg (1010.0 mb)
Winds: from the WNW (290 degrees) at 5 MPH (4 knots; 2.1 m/s)
Visibility: 6 or more miles (10+ km)
Ceiling: 2200 feet AGL
Clouds: overcast cloud deck at 2200 feet AGL
Weather: no significant weather observed at this time

METAR text: EPGD 100830Z 28003KT 9999 OVC021 M04/M05 Q1009
Conditions at: EPGD (GDANSK/REBIECHOW, PL) observed 0830 UTC 10 December 2022
Temperature: -4.0°C (25°F)
Dewpoint: -5.0°C (23°F) [RH = 93%]
Pressure (altimeter): 29.79 inches Hg (1009.0 mb)
Winds: from the W (280 degrees) at 3 MPH (3 knots; 1.5 m/s)
Visibility: 6 or more miles (10+ km)
Ceiling: 2100 feet AGL
Clouds: overcast cloud deck at 2100 feet AGL
Weather: no significant weather observed at this time

Forecast for: EPGD (GDANSK/REBIECHOW, PL)
Text: TAF EPGD 100530Z 1006/1106 VRB04KT 9999 OVC022
Forecast period: 0600 UTC 10 December 2022 to 0600 UTC 11 December 2022
Forecast type: FROM: standard forecast or significant change
Winds: variable direction winds at 5 MPH (4 knots; 2.1 m/s)
Visibility: 6 or more miles (10+ km)
Ceiling: 2200 feet AGL
Clouds: overcast cloud deck at 2200 feet AGL
Weather: no significant weather forecast for this period
Text: PROB30
Forecast period: 0000 to 0600 UTC 11 December 2022
Forecast type: TEMPORARY: The following changes expected for less than half the time period
Visibility: 1.86 miles (2.99 km)
Ceiling: unknown
Clouds: missing
Weather: BR  (mist)